createdAt,value
2023-03-28T00:01:02.555Z,5.93
2023-03-28T00:03:29.977Z,7.32
2023-03-28T00:06:01.096Z,8.20
2023-03-28T00:08:29.354Z,9.90
2023-03-28T00:11:07.112Z,8.48
2023-03-28T00:13:35.035Z,5.93
2023-03-28T00:16:09.493Z,5.45
2023-03-28T00:18:39.374Z,7.50
2023-03-28T00:21:19.723Z,5.50
2023-03-28T00:23:47.208Z,7.40
2023-03-28T00:26:14.459Z,6.22
2023-03-28T00:28:42.333Z,8.18
2023-03-28T00:31:09.681Z,6.72
2023-03-28T00:33:36.978Z,8.00
2023-03-28T00:36:05.070Z,8.02
2023-03-28T00:38:32.748Z,7.00
2023-03-28T00:41:00.218Z,7.63
2023-03-28T00:43:41.298Z,5.53
2023-03-28T00:46:29.980Z,6.32
2023-03-28T00:49:04.458Z,7.05
2023-03-28T00:51:37.625Z,8.40
2023-03-28T00:54:07.913Z,9.05
2023-03-28T00:56:38.012Z,7.43
2023-03-28T00:59:13.433Z,8.05
2023-03-28T01:01:41.157Z,9.60
2023-03-28T01:04:10.335Z,7.72
2023-03-28T01:06:45.460Z,8.48
2023-03-28T01:09:17.110Z,8.95
2023-03-28T01:11:50.019Z,7.65
2023-03-28T01:14:21.502Z,8.27
2023-03-28T01:16:51.673Z,9.27
2023-03-28T01:19:59.123Z,9.65
2023-03-28T01:22:57.141Z,9.07
2023-03-28T01:25:32.130Z,9.98
2023-03-28T01:28:22.663Z,12.50
2023-03-28T01:31:11.190Z,10.32
2023-03-28T01:34:31.104Z,13.27
2023-03-28T01:37:23.942Z,8.82
2023-03-28T01:40:25.903Z,10.70
2023-03-28T01:43:33.931Z,8.60
2023-03-28T01:46:32.051Z,9.93
2023-03-28T01:49:21.194Z,10.57
2023-03-28T01:51:57.455Z,10.68
2023-03-28T01:54:29.284Z,14.65
2023-03-28T01:57:19.484Z,13.73
2023-03-28T02:00:12.891Z,11.27
2023-03-28T02:03:18.974Z,12.05
2023-03-28T02:05:56.090Z,13.73
2023-03-28T02:08:28.199Z,15.70
2023-03-28T02:11:19.144Z,11.98
2023-03-28T02:14:10.829Z,13.95
2023-03-28T02:16:43.907Z,15.75
2023-03-28T02:19:38.706Z,11.55
2023-03-28T02:22:20.402Z,16.40
2023-03-28T02:25:09.036Z,13.85
2023-03-28T02:27:43.111Z,15.43
2023-03-28T02:30:17.976Z,16.65
2023-03-28T02:35:27.715Z,18.20
2023-03-28T02:38:01.503Z,14.88
2023-03-28T02:40:51.916Z,15.20
2023-03-28T02:43:37.975Z,17.70
2023-03-28T02:46:17.740Z,17.70
2023-03-28T02:48:54.034Z,17.25
2023-03-28T02:51:41.810Z,15.75
2023-03-28T02:54:14.852Z,19.10
2023-03-28T02:57:02.245Z,22.13
2023-03-28T02:59:42.795Z,15.65
2023-03-28T03:02:11.684Z,16.52
2023-03-28T03:04:38.989Z,16.98
2023-03-28T03:07:09.121Z,18.10
2023-03-28T03:09:36.485Z,17.05
2023-03-28T03:12:04.624Z,19.27
2023-03-28T03:14:31.979Z,16.27
2023-03-28T03:17:20.688Z,17.77
2023-03-28T03:22:21.065Z,16.50
2023-03-28T03:24:51.411Z,18.30
2023-03-28T03:27:19.562Z,16.20
2023-03-28T03:29:48.560Z,18.23
2023-03-28T03:32:18.432Z,16.83
2023-03-28T03:34:59.626Z,15.38
2023-03-28T03:37:27.227Z,17.05
2023-03-28T03:39:54.525Z,14.52
2023-03-28T03:42:29.085Z,17.38
2023-03-28T03:44:56.454Z,19.48
2023-03-28T03:47:24.790Z,13.45
2023-03-28T03:49:52.174Z,16.25
2023-03-28T03:52:19.482Z,17.50
2023-03-28T03:54:47.147Z,17.42
2023-03-28T03:57:14.641Z,14.77
2023-03-28T03:59:42.224Z,14.90
2023-03-28T04:04:59.923Z,19.65
2023-03-28T04:07:45.317Z,18.48
2023-03-28T04:10:23.362Z,20.52
2023-03-28T04:12:50.735Z,21.67
2023-03-28T04:15:18.240Z,18.65
2023-03-28T04:18:06.901Z,16.80
2023-03-28T04:20:40.544Z,19.33
2023-03-28T04:23:09.789Z,16.38
2023-03-28T04:25:41.760Z,19.83
2023-03-28T04:28:17.299Z,18.70
2023-03-28T04:31:07.514Z,17.38
2023-03-28T04:33:54.001Z,17.05
2023-03-28T04:36:26.055Z,15.65
2023-03-28T04:39:03.081Z,19.45
2023-03-28T04:41:55.764Z,22.10
2023-03-28T04:44:49.064Z,15.00
2023-03-28T04:47:16.451Z,14.20
2023-03-28T04:49:43.831Z,18.63
2023-03-28T04:52:11.643Z,12.10
2023-03-28T04:54:42.052Z,20.15
2023-03-28T04:57:11.341Z,17.60
2023-03-28T04:59:42.901Z,14.10
2023-03-28T05:02:12.838Z,21.75
2023-03-28T05:07:13.732Z,21.35
2023-03-28T05:09:41.002Z,18.65
2023-03-28T05:12:08.591Z,14.23
2023-03-28T05:14:53.117Z,20.75
2023-03-28T05:17:20.677Z,15.68
2023-03-28T05:19:56.569Z,15.95
2023-03-28T05:22:25.459Z,15.10
2023-03-28T05:24:54.311Z,14.43
2023-03-28T05:27:21.806Z,14.48
2023-03-28T05:29:49.060Z,16.17
2023-03-28T05:32:17.672Z,15.70
2023-03-28T05:34:46.397Z,15.00
2023-03-28T05:37:14.164Z,12.95
2023-03-28T05:39:48.998Z,14.57
2023-03-28T05:42:16.767Z,16.20
2023-03-28T05:44:44.216Z,14.32
2023-03-28T05:47:30.792Z,12.90
2023-03-28T05:49:58.966Z,20.52
2023-03-28T05:52:26.384Z,15.73
2023-03-28T05:54:56.310Z,18.17
2023-03-28T05:57:24.094Z,15.82
2023-03-28T05:59:52.741Z,15.02
2023-03-28T06:02:23.715Z,16.60
2023-03-28T06:04:56.834Z,22.83
2023-03-28T06:07:35.102Z,13.88
2023-03-28T06:10:09.613Z,14.18
2023-03-28T06:12:37.896Z,13.43
2023-03-28T06:15:06.596Z,18.80
2023-03-28T06:17:36.948Z,12.75
2023-03-28T06:20:06.832Z,13.02
2023-03-28T06:22:34.238Z,14.32
2023-03-28T06:25:07.464Z,12.82
2023-03-28T06:27:35.676Z,14.02
2023-03-28T06:30:04.996Z,14.40
2023-03-28T06:32:39.106Z,13.20
2023-03-28T06:35:06.973Z,11.35
2023-03-28T06:37:34.260Z,10.18
2023-03-28T06:40:06.029Z,23.50
2023-03-28T06:42:33.532Z,13.18
2023-03-28T06:45:15.174Z,12.82
2023-03-28T06:47:50.166Z,14.60
2023-03-28T06:50:19.714Z,12.65
2023-03-28T06:53:09.713Z,12.77
2023-03-28T06:55:37.059Z,13.90
2023-03-28T06:58:04.355Z,9.52
2023-03-28T07:00:42.287Z,12.93
2023-03-28T07:03:24.695Z,10.68
2023-03-28T07:05:52.078Z,13.80
2023-03-28T07:08:19.559Z,14.35
2023-03-28T07:10:47.112Z,10.30
2023-03-28T07:13:14.724Z,11.98
2023-03-28T07:16:06.858Z,13.35
2023-03-28T07:18:34.754Z,20.05
2023-03-28T07:21:10.911Z,15.52
2023-03-28T07:23:41.541Z,16.33
2023-03-28T07:26:12.250Z,10.65
2023-03-28T07:28:41.000Z,16.45
2023-03-28T07:31:08.687Z,8.68
2023-03-28T07:33:38.158Z,14.95
2023-03-28T07:36:17.127Z,16.63
2023-03-28T07:38:49.260Z,12.75
2023-03-28T07:41:18.683Z,12.95
2023-03-28T07:43:45.978Z,9.52
2023-03-28T07:46:15.083Z,14.38
2023-03-28T07:48:43.686Z,12.20
2023-03-28T07:51:12.365Z,12.63
2023-03-28T07:53:40.091Z,12.80
2023-03-28T07:56:10.823Z,12.82
2023-03-28T07:58:55.189Z,12.23
2023-03-28T08:01:22.989Z,10.30
2023-03-28T08:03:57.762Z,10.50
2023-03-28T08:06:34.235Z,10.95
2023-03-28T08:09:02.964Z,9.85
2023-03-28T08:11:36.684Z,10.90
2023-03-28T08:14:06.123Z,11.85
2023-03-28T08:16:33.809Z,10.68
2023-03-28T08:19:10.725Z,13.52
2023-03-28T08:22:16.566Z,9.85
2023-03-28T08:24:58.538Z,16.02
2023-03-28T08:27:25.870Z,10.07
2023-03-28T08:29:58.429Z,13.20
2023-03-28T08:32:27.189Z,11.48
2023-03-28T08:34:57.846Z,14.40
2023-03-28T08:37:27.995Z,16.08
2023-03-28T08:39:56.970Z,11.55
2023-03-28T08:42:36.274Z,9.52
2023-03-28T08:45:12.596Z,12.52
2023-03-28T08:47:55.039Z,19.80
2023-03-28T08:50:30.895Z,9.38
2023-03-28T08:53:00.528Z,13.82
2023-03-28T08:55:34.128Z,10.02
2023-03-28T08:58:02.124Z,10.77
2023-03-28T09:00:33.086Z,9.77
2023-03-28T09:03:01.086Z,12.37
2023-03-28T09:05:50.034Z,8.43
2023-03-28T09:08:41.799Z,12.98
2023-03-28T09:11:43.525Z,11.33
2023-03-28T09:14:30.048Z,14.23
2023-03-28T09:17:09.074Z,7.00
2023-03-28T09:19:47.663Z,7.60
2023-03-28T09:22:46.331Z,7.93
2023-03-28T09:25:29.730Z,10.15
2023-03-28T09:28:06.845Z,8.50
2023-03-28T09:30:56.281Z,11.60
2023-03-28T09:33:45.832Z,9.88
2023-03-28T09:36:24.804Z,7.22
2023-03-28T09:39:06.416Z,9.27
2023-03-28T09:41:52.523Z,8.48
2023-03-28T09:44:54.845Z,9.18
2023-03-28T09:47:46.666Z,7.20
2023-03-28T09:50:18.640Z,10.68
2023-03-28T09:52:51.308Z,6.47
2023-03-28T09:55:23.911Z,6.10
2023-03-28T09:58:10.429Z,6.82
2023-03-28T10:01:29.924Z,7.68
2023-03-28T10:04:18.975Z,6.97
2023-03-28T10:07:11.379Z,6.25
2023-03-28T10:09:51.904Z,7.70
2023-03-28T10:12:35.403Z,7.32
2023-03-28T10:15:04.385Z,6.45
2023-03-28T10:17:54.396Z,9.27
2023-03-28T10:20:31.507Z,7.25
2023-03-28T10:23:01.041Z,7.95
2023-03-28T10:25:40.789Z,9.35
2023-03-28T10:28:16.584Z,7.75
2023-03-28T10:30:52.518Z,8.52
2023-03-28T10:33:26.593Z,6.88
2023-03-28T10:36:37.623Z,8.52
2023-03-28T10:39:25.293Z,10.07
2023-03-28T10:42:12.815Z,9.38
2023-03-28T10:45:02.791Z,8.10
2023-03-28T10:50:06.810Z,7.38
2023-03-28T10:52:58.750Z,6.20
2023-03-28T10:55:40.697Z,7.80
2023-03-28T10:58:41.075Z,7.45
2023-03-28T11:01:22.596Z,10.82
2023-03-28T11:04:15.509Z,8.88
2023-03-28T11:06:49.091Z,15.93
2023-03-28T11:09:42.097Z,5.43
2023-03-28T11:12:47.714Z,9.15
2023-03-28T11:15:26.696Z,6.63
2023-03-28T11:18:28.720Z,8.82
2023-03-28T11:21:20.551Z,7.53
2023-03-28T11:24:05.457Z,8.50
2023-03-28T11:27:17.155Z,9.05
2023-03-28T11:29:52.202Z,11.02
2023-03-28T11:32:47.801Z,9.95
2023-03-28T11:35:31.896Z,14.43
2023-03-28T11:38:03.978Z,7.70
2023-03-28T11:41:04.459Z,9.32
2023-03-28T11:44:10.094Z,7.93
2023-03-28T11:47:01.670Z,10.15
2023-03-28T11:49:56.899Z,12.35
2023-03-28T11:53:01.055Z,7.63
2023-03-28T11:55:38.337Z,7.38
2023-03-28T11:58:28.142Z,7.75
2023-03-28T12:01:04.986Z,8.02
2023-03-28T12:03:42.932Z,6.88
2023-03-28T12:06:26.172Z,8.00
2023-03-28T12:09:04.525Z,8.77
2023-03-28T12:11:57.830Z,27.85
2023-03-28T12:14:30.027Z,9.30
2023-03-28T12:17:11.378Z,7.95
2023-03-28T12:19:41.323Z,9.60
2023-03-28T12:22:44.849Z,7.80
2023-03-28T12:25:42.109Z,8.23
2023-03-28T12:28:15.446Z,6.82
2023-03-28T12:30:55.169Z,5.88
2023-03-28T12:33:48.969Z,7.10
2023-03-28T12:36:54.299Z,7.10
2023-03-28T12:39:41.878Z,6.53
2023-03-28T12:42:20.580Z,7.15
2023-03-28T12:45:03.911Z,7.03
2023-03-28T12:47:36.772Z,6.55
2023-03-28T12:50:13.312Z,9.15
2023-03-28T12:52:45.479Z,5.03
2023-03-28T12:55:26.291Z,8.93
2023-03-28T12:58:30.085Z,7.50
2023-03-28T13:01:09.309Z,8.38
2023-03-28T13:04:05.174Z,6.07
2023-03-28T13:07:16.977Z,8.50
2023-03-28T13:09:57.840Z,6.22
2023-03-28T13:12:39.870Z,6.90
2023-03-28T13:18:17.910Z,5.65
2023-03-28T13:20:47.129Z,8.85
2023-03-28T13:23:17.760Z,6.75
2023-03-28T13:25:57.846Z,6.55
2023-03-28T13:28:47.543Z,6.13
2023-03-28T13:31:25.859Z,7.30
2023-03-28T13:34:03.462Z,7.47
2023-03-28T13:36:33.415Z,7.28
2023-03-28T13:39:22.347Z,4.85
2023-03-28T13:41:49.628Z,7.03
2023-03-28T13:44:23.893Z,8.65
2023-03-28T13:46:53.681Z,6.05
2023-03-28T13:49:30.120Z,7.15
2023-03-28T13:52:13.223Z,10.27
2023-03-28T13:54:41.171Z,7.65
2023-03-28T13:57:15.922Z,7.53
2023-03-28T13:59:51.961Z,6.18
2023-03-28T14:02:22.379Z,7.28
2023-03-28T14:04:55.782Z,6.00
2023-03-28T14:07:30.825Z,6.97
2023-03-28T14:09:58.337Z,6.82
2023-03-28T14:12:29.518Z,8.82
2023-03-28T14:15:01.418Z,8.50
2023-03-28T14:17:33.815Z,10.20
2023-03-28T14:20:05.552Z,6.30
2023-03-28T14:25:12.898Z,5.00
2023-03-28T14:27:42.916Z,6.07
2023-03-28T14:30:39.163Z,5.03
2023-03-28T14:33:14.366Z,6.82
2023-03-28T14:35:47.920Z,5.82
2023-03-28T14:38:28.360Z,8.18
2023-03-28T14:41:04.431Z,5.85
2023-03-28T14:43:31.981Z,5.75
2023-03-28T14:46:03.562Z,7.60
2023-03-28T14:48:31.242Z,5.32
2023-03-28T14:51:01.480Z,7.53
2023-03-28T14:53:34.730Z,6.18
2023-03-28T14:56:11.165Z,5.25
2023-03-28T14:58:42.646Z,7.45
2023-03-28T15:01:16.240Z,6.35
2023-03-28T15:03:47.624Z,7.47
2023-03-28T15:06:17.842Z,8.38
2023-03-28T15:08:45.951Z,4.95
2023-03-28T15:11:23.565Z,5.72
2023-03-28T15:14:05.099Z,7.22
2023-03-28T15:16:38.199Z,10.68
2023-03-28T15:19:22.501Z,6.80
2023-03-28T15:22:01.322Z,12.13
2023-03-28T15:24:29.375Z,8.18
2023-03-28T15:27:01.683Z,7.63
2023-03-28T15:29:33.446Z,6.03
2023-03-28T15:32:05.832Z,6.90
2023-03-28T15:34:43.511Z,6.80
2023-03-28T15:37:18.557Z,7.35
2023-03-28T15:39:49.564Z,6.55
2023-03-28T15:42:19.696Z,8.70
2023-03-28T15:44:58.865Z,8.07
2023-03-28T15:47:33.974Z,11.40
2023-03-28T15:50:05.827Z,7.78
2023-03-28T15:52:36.581Z,8.85
2023-03-28T15:55:06.428Z,6.45
2023-03-28T15:57:33.948Z,7.10
2023-03-28T16:00:01.428Z,7.35
2023-03-28T16:02:32.265Z,6.70
2023-03-28T16:05:07.082Z,5.55
2023-03-28T16:07:49.802Z,6.22
2023-03-28T16:10:21.528Z,7.53
2023-03-28T16:13:14.402Z,6.88
2023-03-28T16:16:00.300Z,7.55
2023-03-28T16:18:39.811Z,6.82
2023-03-28T16:21:10.175Z,7.78
2023-03-28T16:23:37.744Z,8.75
2023-03-28T16:26:07.007Z,6.72
2023-03-28T16:28:34.806Z,7.97
2023-03-28T16:31:02.364Z,9.88
2023-03-28T16:33:29.968Z,8.35
2023-03-28T16:35:57.354Z,9.27
2023-03-28T16:38:24.697Z,8.90
2023-03-28T16:40:51.978Z,8.43
2023-03-28T16:43:19.242Z,6.70
2023-03-28T16:45:50.314Z,5.70
2023-03-28T16:48:17.869Z,6.93
2023-03-28T16:50:55.820Z,6.90
2023-03-28T16:53:23.148Z,7.32
2023-03-28T16:55:51.309Z,6.28
2023-03-28T16:58:18.707Z,6.88
2023-03-28T17:00:48.114Z,8.05
2023-03-28T17:03:17.206Z,6.22
2023-03-28T17:05:44.685Z,6.30
2023-03-28T17:08:11.893Z,7.10
2023-03-28T17:10:40.789Z,6.32
2023-03-28T17:13:08.835Z,7.57
2023-03-28T17:15:36.644Z,7.35
2023-03-28T17:18:05.815Z,6.03
2023-03-28T17:20:33.619Z,6.25
2023-03-28T17:23:00.919Z,6.85
2023-03-28T17:25:28.406Z,6.72
2023-03-28T17:27:55.756Z,8.18
2023-03-28T17:30:23.004Z,8.32
2023-03-28T17:32:51.545Z,6.60
2023-03-28T17:35:18.947Z,8.68
2023-03-28T17:37:46.221Z,10.02
2023-03-28T17:40:14.653Z,6.63
2023-03-28T17:42:41.948Z,6.93
2023-03-28T17:45:10.763Z,7.15
2023-03-28T17:47:39.530Z,7.72
2023-03-28T17:50:07.570Z,8.70
2023-03-28T17:52:35.450Z,7.82
2023-03-28T17:55:03.220Z,6.63
2023-03-28T17:57:30.525Z,7.05
2023-03-28T17:59:57.899Z,6.97
2023-03-28T18:02:25.330Z,6.85
2023-03-28T18:05:03.632Z,12.18
2023-03-28T18:07:32.667Z,8.32
2023-03-28T18:10:03.153Z,8.63
2023-03-28T18:12:31.016Z,9.80
2023-03-28T18:15:00.413Z,10.20
2023-03-28T18:17:28.860Z,8.65
2023-03-28T18:19:56.552Z,9.27
2023-03-28T18:22:23.912Z,11.07
2023-03-28T18:24:51.250Z,12.23
2023-03-28T18:27:18.624Z,11.40
2023-03-28T18:29:47.541Z,12.80
2023-03-28T18:32:15.047Z,11.13
2023-03-28T18:34:43.213Z,9.70
2023-03-28T18:37:11.910Z,9.95
2023-03-28T18:39:41.786Z,9.55
2023-03-28T18:42:09.204Z,10.82
2023-03-28T18:44:37.169Z,10.77
2023-03-28T18:47:05.302Z,14.68
2023-03-28T18:49:32.959Z,11.63
2023-03-28T18:52:06.154Z,15.48
2023-03-28T18:54:34.707Z,14.57
2023-03-28T18:57:03.446Z,11.50
2023-03-28T18:59:31.221Z,10.48
2023-03-28T19:01:59.647Z,10.48
2023-03-28T19:04:27.608Z,12.45
2023-03-28T19:06:55.086Z,10.30
2023-03-28T19:09:22.820Z,12.68
2023-03-28T19:11:51.270Z,12.30
2023-03-28T19:14:18.771Z,12.20
2023-03-28T19:16:46.336Z,12.30
2023-03-28T19:19:14.279Z,10.73
2023-03-28T19:21:41.634Z,12.88
2023-03-28T19:24:09.153Z,9.35
2023-03-28T19:26:37.149Z,11.32
2023-03-28T19:29:04.569Z,11.88
2023-03-28T19:31:31.956Z,9.55
2023-03-28T19:33:59.406Z,12.52
2023-03-28T19:36:26.872Z,10.88
2023-03-28T19:38:54.427Z,11.88
2023-03-28T19:41:24.418Z,12.75
2023-03-28T19:43:51.872Z,15.63
2023-03-28T19:46:33.160Z,13.27
2023-03-28T19:49:05.761Z,12.30
2023-03-28T19:51:33.743Z,11.30
2023-03-28T19:54:01.617Z,13.75
2023-03-28T19:56:29.253Z,17.42
2023-03-28T19:58:56.769Z,16.27
2023-03-28T20:01:24.191Z,13.85
2023-03-28T20:03:53.455Z,12.43
2023-03-28T20:06:22.479Z,10.93
2023-03-28T20:08:50.815Z,16.80
2023-03-28T20:11:18.568Z,8.95
2023-03-28T20:13:46.010Z,12.50
2023-03-28T20:16:14.029Z,9.27
2023-03-28T20:18:41.923Z,11.55
2023-03-28T20:21:11.820Z,11.23
2023-03-28T20:23:39.883Z,15.90
2023-03-28T20:26:18.718Z,11.32
2023-03-28T20:28:49.791Z,10.52
2023-03-28T20:31:18.922Z,13.33
2023-03-28T20:33:46.585Z,12.13
2023-03-28T20:36:14.218Z,12.10
2023-03-28T20:38:41.481Z,11.77
2023-03-28T20:41:17.840Z,10.13
2023-03-28T20:43:50.356Z,10.20
2023-03-28T20:46:21.295Z,8.70
2023-03-28T20:48:53.194Z,9.43
2023-03-28T20:53:54.789Z,13.27
2023-03-28T20:56:23.767Z,11.95
2023-03-28T20:58:53.551Z,11.13
2023-03-28T21:01:25.466Z,11.55
2023-03-28T21:03:55.379Z,8.57
2023-03-28T21:06:26.208Z,11.55
2023-03-28T21:08:55.598Z,8.95
2023-03-28T21:11:28.158Z,10.98
2023-03-28T21:13:56.734Z,11.25
2023-03-28T21:16:24.333Z,10.45
2023-03-28T21:18:51.656Z,9.43
2023-03-28T21:21:20.133Z,9.15
2023-03-28T21:23:48.386Z,9.95
2023-03-28T21:26:21.641Z,8.50
2023-03-28T21:28:49.613Z,10.63
2023-03-28T21:31:20.956Z,10.60
2023-03-28T21:33:49.131Z,8.00
2023-03-28T21:36:19.135Z,9.98
2023-03-28T21:38:47.526Z,7.53
2023-03-28T21:41:16.155Z,8.82
2023-03-28T21:43:43.505Z,11.23
2023-03-28T21:46:11.627Z,8.38
2023-03-28T21:48:39.372Z,8.02
2023-03-28T21:51:08.108Z,11.65
2023-03-28T21:53:37.588Z,9.50
2023-03-28T21:56:06.888Z,12.07
2023-03-28T21:58:34.798Z,12.82
2023-03-28T22:01:04.025Z,12.13
2023-03-28T22:03:31.895Z,10.60
2023-03-28T22:05:59.321Z,8.02
2023-03-28T22:08:27.251Z,8.43
2023-03-28T22:10:58.550Z,9.30
2023-03-28T22:13:26.031Z,10.80
2023-03-28T22:15:53.411Z,7.65
2023-03-28T22:18:20.871Z,7.32
2023-03-28T22:20:53.514Z,7.97
2023-03-28T22:23:22.752Z,11.05
2023-03-28T22:25:50.876Z,8.48
2023-03-28T22:28:18.930Z,7.78
2023-03-28T22:30:46.661Z,11.32
2023-03-28T22:33:14.017Z,9.27
2023-03-28T22:35:41.306Z,15.77
2023-03-28T22:38:08.920Z,7.53
2023-03-28T22:40:36.223Z,8.98
2023-03-28T22:43:03.609Z,12.05
2023-03-28T22:45:31.361Z,8.93
2023-03-28T22:48:00.629Z,7.68
2023-03-28T22:50:28.543Z,9.65
2023-03-28T22:52:56.423Z,9.15
2023-03-28T22:55:24.555Z,9.88
2023-03-28T22:57:52.794Z,8.52
2023-03-28T23:00:23.681Z,7.53
2023-03-28T23:02:52.302Z,8.88
2023-03-28T23:05:20.371Z,9.10
2023-03-28T23:07:48.826Z,8.02
2023-03-28T23:10:19.245Z,6.68
2023-03-28T23:12:47.404Z,9.73
2023-03-28T23:15:14.928Z,7.60
2023-03-28T23:17:43.008Z,8.05
2023-03-28T23:20:14.927Z,10.68
2023-03-28T23:25:12.467Z,9.75
2023-03-28T23:27:40.709Z,6.57
2023-03-28T23:30:10.348Z,9.10
2023-03-28T23:32:37.991Z,10.50
2023-03-28T23:35:07.019Z,7.97
2023-03-28T23:37:34.596Z,7.63
2023-03-28T23:40:02.342Z,9.90
2023-03-28T23:42:29.604Z,9.48
2023-03-28T23:44:56.875Z,10.98
2023-03-28T23:47:24.088Z,7.72
2023-03-28T23:49:51.343Z,8.90
2023-03-28T23:52:18.534Z,6.50
2023-03-28T23:54:46.686Z,7.65
2023-03-28T23:57:14.314Z,9.02
2023-03-28T23:59:41.597Z,7.35
